sensor_id;sensor_type;location;lat;lon;timestamp;pressure;altitude;pressure_sealevel;temperature;humidity
29935;BME280;19905;53.370;-6.314;2023-02-02T00:01:49;102011.28;;;8.08;100.00
29935;BME280;19905;53.370;-6.314;2023-02-02T00:04:21;102008.56;;;8.10;100.00
29935;BME280;19905;53.370;-6.314;2023-02-02T00:06:50;102020.88;;;8.09;100.00
29935;BME280;19905;53.370;-6.314;2023-02-02T00:09:19;102026.78;;;8.14;100.00
29935;BME280;19905;53.370;-6.314;2023-02-02T00:11:49;102019.81;;;8.13;100.00
29935;BME280;19905;53.370;-6.314;2023-02-02T00:14:21;102020.53;;;8.17;100.00
29935;BME280;19905;53.370;-6.314;2023-02-02T00:16:51;102030.03;;;8.20;100.00
29935;BME280;19905;53.370;-6.314;2023-02-02T00:19:23;102027.38;;;8.21;100.00
29935;BME280;19905;53.370;-6.314;2023-02-02T00:21:53;102029.06;;;8.22;100.00
29935;BME280;19905;53.370;-6.314;2023-02-02T00:24:22;102013.19;;;8.24;100.00
29935;BME280;19905;53.370;-6.314;2023-02-02T00:26:55;102009.50;;;8.28;100.00
29935;BME280;19905;53.370;-6.314;2023-02-02T00:29:26;102025.28;;;8.28;100.00
29935;BME280;19905;53.370;-6.314;2023-02-02T00:31:55;102009.44;;;8.29;100.00
29935;BME280;19905;53.370;-6.314;2023-02-02T00:34:25;102011.78;;;8.35;100.00
29935;BME280;19905;53.370;-6.314;2023-02-02T00:36:54;102013.44;;;8.38;100.00
29935;BME280;19905;53.370;-6.314;2023-02-02T00:39:24;102009.25;;;8.34;100.00
29935;BME280;19905;53.370;-6.314;2023-02-02T00:41:54;102011.41;;;8.45;100.00
29935;BME280;19905;53.370;-6.314;2023-02-02T00:44:23;102010.94;;;8.35;100.00
29935;BME280;19905;53.370;-6.314;2023-02-02T00:47:20;102018.66;;;8.39;100.00
29935;BME280;19905;53.370;-6.314;2023-02-02T00:49:51;102018.00;;;8.34;100.00
29935;BME280;19905;53.370;-6.314;2023-02-02T00:52:19;102021.28;;;8.39;100.00
29935;BME280;19905;53.370;-6.314;2023-02-02T00:54:48;102014.31;;;8.38;100.00
29935;BME280;19905;53.370;-6.314;2023-02-02T00:57:17;102016.16;;;8.36;100.00
29935;BME280;19905;53.370;-6.314;2023-02-02T00:59:50;102009.53;;;8.47;100.00
29935;BME280;19905;53.370;-6.314;2023-02-02T01:02:18;102014.97;;;8.44;100.00
29935;BME280;19905;53.370;-6.314;2023-02-02T01:04:47;102015.72;;;8.46;100.00
29935;BME280;19905;53.370;-6.314;2023-02-02T01:07:18;102001.63;;;8.47;100.00
29935;BME280;19905;53.370;-6.314;2023-02-02T01:09:47;102015.00;;;8.42;100.00
29935;BME280;19905;53.370;-6.314;2023-02-02T01:12:15;102002.47;;;8.47;100.00
29935;BME280;19905;53.370;-6.314;2023-02-02T01:14:44;102022.66;;;8.48;100.00
29935;BME280;19905;53.370;-6.314;2023-02-02T01:17:13;102012.13;;;8.48;100.00
29935;BME280;19905;53.370;-6.314;2023-02-02T01:19:41;102021.72;;;8.49;100.00
29935;BME280;19905;53.370;-6.314;2023-02-02T01:22:10;102003.19;;;8.51;100.00
29935;BME280;19905;53.370;-6.314;2023-02-02T01:24:40;102015.44;;;8.52;100.00
29935;BME280;19905;53.370;-6.314;2023-02-02T01:27:09;102013.69;;;8.52;100.00
29935;BME280;19905;53.370;-6.314;2023-02-02T01:29:37;102007.53;;;8.52;100.00
29935;BME280;19905;53.370;-6.314;2023-02-02T01:32:06;102008.41;;;8.52;100.00
29935;BME280;19905;53.370;-6.314;2023-02-02T01:34:35;101992.75;;;8.49;100.00
29935;BME280;19905;53.370;-6.314;2023-02-02T01:37:08;101995.16;;;8.54;100.00
29935;BME280;19905;53.370;-6.314;2023-02-02T01:39:37;101996.88;;;8.55;100.00
29935;BME280;19905;53.370;-6.314;2023-02-02T01:42:12;101995.94;;;8.56;100.00
29935;BME280;19905;53.370;-6.314;2023-02-02T01:45:13;101998.66;;;8.54;100.00
29935;BME280;19905;53.370;-6.314;2023-02-02T01:47:47;101998.66;;;8.54;100.00
29935;BME280;19905;53.370;-6.314;2023-02-02T01:50:17;101987.25;;;8.54;100.00
29935;BME280;19905;53.370;-6.314;2023-02-02T01:52:48;101985.47;;;8.54;100.00
29935;BME280;19905;53.370;-6.314;2023-02-02T01:55:22;101989.81;;;8.55;100.00
29935;BME280;19905;53.370;-6.314;2023-02-02T01:58:02;101974.00;;;8.55;100.00
29935;BME280;19905;53.370;-6.314;2023-02-02T02:00:32;101989.75;;;8.57;100.00
29935;BME280;19905;53.370;-6.314;2023-02-02T02:03:04;101984.41;;;8.58;100.00
29935;BME280;19905;53.370;-6.314;2023-02-02T02:05:37;101977.28;;;8.60;100.00
29935;BME280;19905;53.370;-6.314;2023-02-02T02:08:13;101986.03;;;8.61;100.00
29935;BME280;19905;53.370;-6.314;2023-02-02T02:10:42;101974.66;;;8.60;100.00
29935;BME280;19905;53.370;-6.314;2023-02-02T02:13:14;101968.88;;;8.71;100.00
29935;BME280;19905;53.370;-6.314;2023-02-02T02:15:48;101983.84;;;8.71;100.00
29935;BME280;19905;53.370;-6.314;2023-02-02T02:18:44;101972.72;;;8.64;100.00
29935;BME280;19905;53.370;-6.314;2023-02-02T02:21:41;101983.25;;;8.64;100.00
29935;BME280;19905;53.370;-6.314;2023-02-02T02:25:04;101983.03;;;8.69;100.00
29935;BME280;19905;53.370;-6.314;2023-02-02T02:28:37;101994.84;;;8.60;100.00
29935;BME280;19905;53.370;-6.314;2023-02-02T02:31:54;101973.06;;;8.56;100.00
29935;BME280;19905;53.370;-6.314;2023-02-02T02:34:31;101964.50;;;8.53;100.00
29935;BME280;19905;53.370;-6.314;2023-02-02T02:37:07;101969.91;;;8.50;100.00
29935;BME280;19905;53.370;-6.314;2023-02-02T02:39:42;101957.66;;;8.49;100.00
29935;BME280;19905;53.370;-6.314;2023-02-02T02:42:15;101951.69;;;8.45;100.00
29935;BME280;19905;53.370;-6.314;2023-02-02T02:44:47;101954.22;;;8.47;100.00
29935;BME280;19905;53.370;-6.314;2023-02-02T02:47:19;101959.50;;;8.47;100.00
29935;BME280;19905;53.370;-6.314;2023-02-02T02:49:49;101968.34;;;8.46;100.00
29935;BME280;19905;53.370;-6.314;2023-02-02T02:52:17;101961.22;;;8.48;100.00
29935;BME280;19905;53.370;-6.314;2023-02-02T02:54:48;101955.97;;;8.48;100.00
29935;BME280;19905;53.370;-6.314;2023-02-02T02:57:37;101959.22;;;8.53;100.00
29935;BME280;19905;53.370;-6.314;2023-02-02T03:00:22;101960.94;;;8.54;100.00
29935;BME280;19905;53.370;-6.314;2023-02-02T03:03:00;101963.47;;;8.55;100.00
29935;BME280;19905;53.370;-6.314;2023-02-02T03:05:38;101965.34;;;8.53;100.00
29935;BME280;19905;53.370;-6.314;2023-02-02T03:08:15;101964.53;;;8.51;100.00
29935;BME280;19905;53.370;-6.314;2023-02-02T03:10:47;101965.47;;;8.50;100.00
29935;BME280;19905;53.370;-6.314;2023-02-02T03:13:16;101964.75;;;8.47;100.00
29935;BME280;19905;53.370;-6.314;2023-02-02T03:15:45;101957.66;;;8.49;100.00
29935;BME280;19905;53.370;-6.314;2023-02-02T03:18:18;101970.66;;;8.52;100.00
29935;BME280;19905;53.370;-6.314;2023-02-02T03:20:48;101970.66;;;8.52;100.00
29935;BME280;19905;53.370;-6.314;2023-02-02T03:23:17;101971.47;;;8.54;100.00
29935;BME280;19905;53.370;-6.314;2023-02-02T03:25:45;101965.41;;;8.52;100.00
29935;BME280;19905;53.370;-6.314;2023-02-02T03:28:15;101968.97;;;8.51;100.00
29935;BME280;19905;53.370;-6.314;2023-02-02T03:30:46;101969.13;;;8.48;100.00
29935;BME280;19905;53.370;-6.314;2023-02-02T03:33:18;101978.88;;;8.46;100.00
29935;BME280;19905;53.370;-6.314;2023-02-02T03:35:46;101979.88;;;8.43;100.00
29935;BME280;19905;53.370;-6.314;2023-02-02T03:38:15;101979.16;;;8.39;100.00
29935;BME280;19905;53.370;-6.314;2023-02-02T03:40:43;101981.00;;;8.37;100.00
29935;BME280;19905;53.370;-6.314;2023-02-02T03:43:12;101988.94;;;8.36;100.00
29935;BME280;19905;53.370;-6.314;2023-02-02T03:45:40;101987.25;;;8.35;100.00
29935;BME280;19905;53.370;-6.314;2023-02-02T03:48:11;101982.97;;;8.32;100.00
29935;BME280;19905;53.370;-6.314;2023-02-02T03:50:42;101979.59;;;8.29;100.00
29935;BME280;19905;53.370;-6.314;2023-02-02T03:53:11;101987.50;;;8.29;100.00
29935;BME280;19905;53.370;-6.314;2023-02-02T03:55:39;101985.81;;;8.28;100.00
29935;BME280;19905;53.370;-6.314;2023-02-02T03:58:08;101982.25;;;8.29;100.00
29935;BME280;19905;53.370;-6.314;2023-02-02T04:00:37;101995.41;;;8.29;100.00
29935;BME280;19905;53.370;-6.314;2023-02-02T04:03:06;101979.69;;;8.27;100.00
29935;BME280;19905;53.370;-6.314;2023-02-02T04:05:34;101980.50;;;8.29;100.00
29935;BME280;19905;53.370;-6.314;2023-02-02T04:08:05;101987.38;;;8.32;100.00
29935;BME280;19905;53.370;-6.314;2023-02-02T04:10:34;101996.13;;;8.32;100.00
29935;BME280;19905;53.370;-6.314;2023-02-02T04:13:02;101994.28;;;8.34;100.00
29935;BME280;19905;53.370;-6.314;2023-02-02T04:15:31;101987.13;;;8.38;100.00
29935;BME280;19905;53.370;-6.314;2023-02-02T04:18:01;101990.53;;;8.40;100.00
29935;BME280;19905;53.370;-6.314;2023-02-02T04:20:30;101982.66;;;8.40;100.00
29935;BME280;19905;53.370;-6.314;2023-02-02T04:22:58;101986.13;;;8.40;100.00
29935;BME280;19905;53.370;-6.314;2023-02-02T04:25:28;101980.66;;;8.45;100.00
29935;BME280;19905;53.370;-6.314;2023-02-02T04:27:58;101990.31;;;8.45;100.00
29935;BME280;19905;53.370;-6.314;2023-02-02T04:30:28;101983.19;;;8.47;100.00
29935;BME280;19905;53.370;-6.314;2023-02-02T04:32:56;101985.84;;;8.47;100.00
29935;BME280;19905;53.370;-6.314;2023-02-02T04:35:25;101979.81;;;8.45;100.00
29935;BME280;19905;53.370;-6.314;2023-02-02T04:37:54;101979.88;;;8.43;100.00
29935;BME280;19905;53.370;-6.314;2023-02-02T04:40:23;101977.31;;;8.42;100.00
29935;BME280;19905;53.370;-6.314;2023-02-02T04:42:53;101975.50;;;8.42;100.00
29935;BME280;19905;53.370;-6.314;2023-02-02T04:45:22;101979.94;;;8.42;100.00
29935;BME280;19905;53.370;-6.314;2023-02-02T04:47:52;101972.03;;;8.42;100.00
29935;BME280;19905;53.370;-6.314;2023-02-02T04:50:21;101958.81;;;8.43;100.00
29935;BME280;19905;53.370;-6.314;2023-02-02T04:52:50;101968.41;;;8.44;100.00
29935;BME280;19905;53.370;-6.314;2023-02-02T04:55:19;101971.81;;;8.46;100.00
29935;BME280;19905;53.370;-6.314;2023-02-02T04:57:49;101969.19;;;8.46;100.00
29935;BME280;19905;53.370;-6.314;2023-02-02T05:00:19;101969.03;;;8.49;100.00
29935;BME280;19905;53.370;-6.314;2023-02-02T05:02:48;101979.59;;;8.49;100.00
29935;BME280;19905;53.370;-6.314;2023-02-02T05:05:16;101984.75;;;8.51;100.00
29935;BME280;19905;53.370;-6.314;2023-02-02T05:07:46;101985.63;;;8.51;100.00
29935;BME280;19905;53.370;-6.314;2023-02-02T05:10:15;101989.09;;;8.52;100.00
29935;BME280;19905;53.370;-6.314;2023-02-02T05:12:44;101992.84;;;8.48;100.00
29935;BME280;19905;53.370;-6.314;2023-02-02T05:15:12;101991.25;;;8.44;100.00
29935;BME280;19905;53.370;-6.314;2023-02-02T05:17:42;101993.09;;;8.42;100.00
29935;BME280;19905;53.370;-6.314;2023-02-02T05:20:12;101994.09;;;8.39;100.00
29935;BME280;19905;53.370;-6.314;2023-02-02T05:22:40;101995.09;;;8.36;100.00
29935;BME280;19905;53.370;-6.314;2023-02-02T05:25:09;101990.69;;;8.37;100.00
29935;BME280;19905;53.370;-6.314;2023-02-02T05:27:38;102001.16;;;8.38;100.00
29935;BME280;19905;53.370;-6.314;2023-02-02T05:30:09;101986.22;;;8.39;100.00
29935;BME280;19905;53.370;-6.314;2023-02-02T05:32:41;101983.63;;;8.37;100.00
29935;BME280;19905;53.370;-6.314;2023-02-02T05:35:10;101975.72;;;8.37;100.00
29935;BME280;19905;53.370;-6.314;2023-02-02T05:37:41;101978.22;;;8.40;100.00
29935;BME280;19905;53.370;-6.314;2023-02-02T05:40:11;101980.78;;;8.42;100.00
29935;BME280;19905;53.370;-6.314;2023-02-02T05:42:40;101968.19;;;8.49;100.00
29935;BME280;19905;53.370;-6.314;2023-02-02T05:45:09;101961.91;;;8.51;100.00
29935;BME280;19905;53.370;-6.314;2023-02-02T05:47:38;101956.72;;;8.50;100.00
29935;BME280;19905;53.370;-6.314;2023-02-02T05:50:09;101955.53;;;8.57;100.00
29935;BME280;19905;53.370;-6.314;2023-02-02T05:52:39;101960.78;;;8.57;100.00
29935;BME280;19905;53.370;-6.314;2023-02-02T05:55:09;101961.56;;;8.59;100.00
29935;BME280;19905;53.370;-6.314;2023-02-02T05:57:38;101947.53;;;8.58;100.00
29935;BME280;19905;53.370;-6.314;2023-02-02T06:00:07;101953.16;;;8.51;100.00
29935;BME280;19905;53.370;-6.314;2023-02-02T06:02:36;101954.41;;;8.44;100.00
29935;BME280;19905;53.370;-6.314;2023-02-02T06:05:06;101958.09;;;8.39;100.00
29935;BME280;19905;53.370;-6.314;2023-02-02T06:07:36;101965.19;;;8.37;100.00
29935;BME280;19905;53.370;-6.314;2023-02-02T06:10:05;101945.13;;;8.35;100.00
29935;BME280;19905;53.370;-6.314;2023-02-02T06:12:33;101954.66;;;8.37;100.00
29935;BME280;19905;53.370;-6.314;2023-02-02T06:15:02;101947.63;;;8.38;100.00
29935;BME280;19905;53.370;-6.314;2023-02-02T06:17:32;101957.09;;;8.42;100.00
29935;BME280;19905;53.370;-6.314;2023-02-02T06:20:00;101960.56;;;8.43;100.00
29935;BME280;19905;53.370;-6.314;2023-02-02T06:22:31;101947.41;;;8.43;100.00
29935;BME280;19905;53.370;-6.314;2023-02-02T06:25:02;101943.16;;;8.40;100.00
29935;BME280;19905;53.370;-6.314;2023-02-02T06:27:34;101954.53;;;8.40;100.00
29935;BME280;19905;53.370;-6.314;2023-02-02T06:30:03;101950.13;;;8.41;100.00
29935;BME280;19905;53.370;-6.314;2023-02-02T06:32:31;101963.19;;;8.43;100.00
29935;BME280;19905;53.370;-6.314;2023-02-02T06:35:00;101957.03;;;8.44;100.00
29935;BME280;19905;53.370;-6.314;2023-02-02T06:37:28;101952.66;;;8.43;100.00
29935;BME280;19905;53.370;-6.314;2023-02-02T06:39:57;101961.66;;;8.38;100.00
29935;BME280;19905;53.370;-6.314;2023-02-02T06:42:27;101954.81;;;8.34;100.00
29935;BME280;19905;53.370;-6.314;2023-02-02T06:44:56;101948.81;;;8.31;100.00
29935;BME280;19905;53.370;-6.314;2023-02-02T06:47:25;101954.22;;;8.28;100.00
29935;BME280;19905;53.370;-6.314;2023-02-02T06:49:54;101964.97;;;8.23;100.00
29935;BME280;19905;53.370;-6.314;2023-02-02T06:52:22;101943.28;;;8.18;100.00
29935;BME280;19905;53.370;-6.314;2023-02-02T06:54:51;101959.78;;;8.22;100.00
29935;BME280;19905;53.370;-6.314;2023-02-02T06:57:20;101963.19;;;8.24;100.00
29935;BME280;19905;53.370;-6.314;2023-02-02T06:59:49;101958.75;;;8.24;100.00
29935;BME280;19905;53.370;-6.314;2023-02-02T07:02:18;101963.13;;;8.25;100.00
29935;BME280;19905;53.370;-6.314;2023-02-02T07:04:50;101961.41;;;8.24;100.00
29935;BME280;19905;53.370;-6.314;2023-02-02T07:07:18;101969.16;;;8.27;100.00
29935;BME280;19905;53.370;-6.314;2023-02-02T07:09:47;101964.91;;;8.25;100.00
29935;BME280;19905;53.370;-6.314;2023-02-02T07:12:24;101963.19;;;8.24;100.00
29935;BME280;19905;53.370;-6.314;2023-02-02T07:14:54;101965.75;;;8.25;100.00
29935;BME280;19905;53.370;-6.314;2023-02-02T07:17:25;101972.72;;;8.26;100.00
29935;BME280;19905;53.370;-6.314;2023-02-02T07:19:54;101970.22;;;8.23;100.00
29935;BME280;19905;53.370;-6.314;2023-02-02T07:22:22;101959.16;;;8.17;100.00
29935;BME280;19905;53.370;-6.314;2023-02-02T07:24:51;101960.84;;;8.18;100.00
29935;BME280;19905;53.370;-6.314;2023-02-02T07:27:20;101956.50;;;8.17;100.00
29935;BME280;19905;53.370;-6.314;2023-02-02T07:29:48;101952.88;;;8.19;100.00
29935;BME280;19905;53.370;-6.314;2023-02-02T07:32:18;101959.06;;;8.18;100.00
29935;BME280;19905;53.370;-6.314;2023-02-02T07:34:48;101960.84;;;8.18;100.00
29935;BME280;19905;53.370;-6.314;2023-02-02T07:37:17;101955.38;;;8.22;100.00
29935;BME280;19905;53.370;-6.314;2023-02-02T07:39:45;101958.75;;;8.24;100.00
29935;BME280;19905;53.370;-6.314;2023-02-02T07:42:14;101955.91;;;8.29;100.00
29935;BME280;19905;53.370;-6.314;2023-02-02T07:44:43;101950.34;;;8.36;100.00
29935;BME280;19905;53.370;-6.314;2023-02-02T07:47:12;101939.66;;;8.39;100.00
29935;BME280;19905;53.370;-6.314;2023-02-02T07:49:41;101956.50;;;8.35;100.00
29935;BME280;19905;53.370;-6.314;2023-02-02T07:52:12;101960.41;;;8.27;100.00
29935;BME280;19905;53.370;-6.314;2023-02-02T07:54:41;101945.13;;;8.16;100.00
29935;BME280;19905;53.370;-6.314;2023-02-02T07:57:10;101952.53;;;8.08;100.00
29935;BME280;19905;53.370;-6.314;2023-02-02T07:59:39;101949.09;;;8.06;100.00
29935;BME280;19905;53.370;-6.314;2023-02-02T08:02:09;101950.75;;;8.08;100.00
29935;BME280;19905;53.370;-6.314;2023-02-02T08:04:38;101963.06;;;8.08;100.00
29935;BME280;19905;53.370;-6.314;2023-02-02T08:07:08;101956.84;;;8.09;100.00
29935;BME280;19905;53.370;-6.314;2023-02-02T08:09:37;101959.41;;;8.10;100.00
29935;BME280;19905;53.370;-6.314;2023-02-02T08:12:05;101960.13;;;8.14;100.00
29935;BME280;19905;53.370;-6.314;2023-02-02T08:14:34;101966.25;;;8.14;100.00
29935;BME280;19905;53.370;-6.314;2023-02-02T08:17:03;101961.81;;;8.15;100.00
29935;BME280;19905;53.370;-6.314;2023-02-02T08:19:32;101984.66;;;8.14;100.00
29935;BME280;19905;53.370;-6.314;2023-02-02T08:22:00;101957.56;;;8.12;100.00
29935;BME280;19905;53.370;-6.314;2023-02-02T08:24:31;101965.56;;;8.11;100.00
29935;BME280;19905;53.370;-6.314;2023-02-02T08:27:00;101963.59;;;8.14;100.00
29935;BME280;19905;53.370;-6.314;2023-02-02T08:29:30;101977.78;;;8.12;100.00
29935;BME280;19905;53.370;-6.314;2023-02-02T08:32:09;101989.03;;;8.15;100.00
29935;BME280;19905;53.370;-6.314;2023-02-02T08:34:38;101951.97;;;8.20;100.00
29935;BME280;19905;53.370;-6.314;2023-02-02T08:37:08;101957.88;;;8.25;100.00
29935;BME280;19905;53.370;-6.314;2023-02-02T08:39:39;101965.59;;;8.28;100.00
29935;BME280;19905;53.370;-6.314;2023-02-02T08:42:08;101960.19;;;8.31;100.00
29935;BME280;19905;53.370;-6.314;2023-02-02T08:44:36;101959.09;;;8.37;100.00
29935;BME280;19905;53.370;-6.314;2023-02-02T08:47:28;101936.97;;;8.41;100.00
29935;BME280;19905;53.370;-6.314;2023-02-02T08:49:57;101952.63;;;8.44;100.00
29935;BME280;19905;53.370;-6.314;2023-02-02T08:52:25;101962.94;;;8.49;100.00
29935;BME280;19905;53.370;-6.314;2023-02-02T08:58:16;101970.97;;;8.46;100.00
29935;BME280;19905;53.370;-6.314;2023-02-02T09:00:44;101990.19;;;8.48;100.00
29935;BME280;19905;53.370;-6.314;2023-02-02T09:03:13;101965.63;;;8.47;100.00
29935;BME280;19905;53.370;-6.314;2023-02-02T09:05:45;101973.25;;;8.53;100.00
29935;BME280;19905;53.370;-6.314;2023-02-02T09:08:13;101991.50;;;8.56;100.00
29935;BME280;19905;53.370;-6.314;2023-02-02T09:10:42;101967.91;;;8.55;100.00
29935;BME280;19905;53.370;-6.314;2023-02-02T09:13:10;101975.78;;;8.55;100.00
29935;BME280;19905;53.370;-6.314;2023-02-02T09:15:40;101989.97;;;8.52;100.00
29935;BME280;19905;53.370;-6.314;2023-02-02T09:18:11;101986.53;;;8.50;100.00
29935;BME280;19905;53.370;-6.314;2023-02-02T09:20:40;102008.63;;;8.48;100.00
29935;BME280;19905;53.370;-6.314;2023-02-02T09:23:11;101989.19;;;8.50;100.00
29935;BME280;19905;53.370;-6.314;2023-02-02T09:25:40;102010.88;;;8.55;100.00
29935;BME280;19905;53.370;-6.314;2023-02-02T09:28:11;101972.84;;;8.61;100.00
29935;BME280;19905;53.370;-6.314;2023-02-02T09:30:41;101996.34;;;8.65;100.00
29935;BME280;19905;53.370;-6.314;2023-02-02T09:33:10;101996.13;;;8.70;100.00
29935;BME280;19905;53.370;-6.314;2023-02-02T09:35:39;101988.00;;;8.75;100.00
29935;BME280;19905;53.370;-6.314;2023-02-02T09:38:08;101989.88;;;8.73;100.00
29935;BME280;19905;53.370;-6.314;2023-02-02T09:40:39;101990.50;;;8.78;100.00
29935;BME280;19905;53.370;-6.314;2023-02-02T09:43:23;101987.88;;;8.78;100.00
29935;BME280;19905;53.370;-6.314;2023-02-02T09:46:02;101993.94;;;8.80;100.00
29935;BME280;19905;53.370;-6.314;2023-02-02T09:48:41;101984.16;;;8.82;100.00
29935;BME280;19905;53.370;-6.314;2023-02-02T09:51:16;102004.38;;;8.81;100.00
29935;BME280;19905;53.370;-6.314;2023-02-02T09:53:52;102004.28;;;8.83;100.00
29935;BME280;19905;53.370;-6.314;2023-02-02T09:56:26;101996.63;;;8.78;100.00
29935;BME280;19905;53.370;-6.314;2023-02-02T09:58:59;101996.47;;;8.81;100.00
29935;BME280;19905;53.370;-6.314;2023-02-02T10:01:53;101987.94;;;8.76;100.00
29935;BME280;19905;53.370;-6.314;2023-02-02T10:04:28;102021.97;;;8.81;100.00
29935;BME280;19905;53.370;-6.314;2023-02-02T10:07:06;101984.91;;;8.84;100.00
29935;BME280;19905;53.370;-6.314;2023-02-02T10:09:39;102004.88;;;8.89;100.00
29935;BME280;19905;53.370;-6.314;2023-02-02T10:12:24;102014.38;;;8.92;100.00
29935;BME280;19905;53.370;-6.314;2023-02-02T10:14:59;102013.53;;;8.91;100.00
29935;BME280;19905;53.370;-6.314;2023-02-02T10:17:39;102012.38;;;8.80;100.00
29935;BME280;19905;53.370;-6.314;2023-02-02T10:20:27;102015.91;;;8.79;100.00
29935;BME280;19905;53.370;-6.314;2023-02-02T10:23:04;102021.03;;;8.82;100.00
29935;BME280;19905;53.370;-6.314;2023-02-02T10:25:37;102023.53;;;8.85;100.00
29935;BME280;19905;53.370;-6.314;2023-02-02T10:28:16;102017.09;;;8.90;100.00
29935;BME280;19905;53.370;-6.314;2023-02-02T10:30:52;102024.72;;;8.97;100.00
29935;BME280;19905;53.370;-6.314;2023-02-02T10:33:34;102015.66;;;9.02;100.00
29935;BME280;19905;53.370;-6.314;2023-02-02T10:36:11;102020.31;;;9.14;100.00
29935;BME280;19905;53.370;-6.314;2023-02-02T10:38:49;102039.84;;;9.10;100.00
29935;BME280;19905;53.370;-6.314;2023-02-02T10:41:29;102033.00;;;9.06;100.00
29935;BME280;19905;53.370;-6.314;2023-02-02T10:44:11;102039.53;;;8.99;100.00
29935;BME280;19905;53.370;-6.314;2023-02-02T10:46:46;102049.59;;;8.91;100.00
29935;BME280;19905;53.370;-6.314;2023-02-02T10:49:26;102047.47;;;8.80;100.00
29935;BME280;19905;53.370;-6.314;2023-02-02T10:52:03;102047.47;;;8.80;100.00
29935;BME280;19905;53.370;-6.314;2023-02-02T10:54:46;102044.75;;;8.82;100.00
29935;BME280;19905;53.370;-6.314;2023-02-02T10:57:41;102047.47;;;8.80;100.00
29935;BME280;19905;53.370;-6.314;2023-02-02T11:00:18;102055.28;;;8.82;100.00
29935;BME280;19905;53.370;-6.314;2023-02-02T11:02:50;102057.00;;;8.83;100.00
29935;BME280;19905;53.370;-6.314;2023-02-02T11:05:23;102085.75;;;8.87;100.00
29935;BME280;19905;53.370;-6.314;2023-02-02T11:08:15;102051.44;;;8.89;100.00
29935;BME280;19905;53.370;-6.314;2023-02-02T11:10:47;102061.09;;;8.88;100.00
29935;BME280;19905;53.370;-6.314;2023-02-02T11:13:26;102061.78;;;8.94;100.00
29935;BME280;19905;53.370;-6.314;2023-02-02T11:16:25;102046.50;;;9.00;100.00
29935;BME280;19905;53.370;-6.314;2023-02-02T11:19:26;102050.00;;;9.01;100.00
29935;BME280;19905;53.370;-6.314;2023-02-02T11:21:58;102049.75;;;9.05;100.00
29935;BME280;19905;53.370;-6.314;2023-02-02T11:24:30;102050.47;;;9.09;100.00
29935;BME280;19905;53.370;-6.314;2023-02-02T11:27:04;102058.31;;;9.10;100.00
29935;BME280;19905;53.370;-6.314;2023-02-02T11:29:41;102043.19;;;9.14;100.00
29935;BME280;19905;53.370;-6.314;2023-02-02T11:32:19;102022.59;;;9.22;100.00
29935;BME280;19905;53.370;-6.314;2023-02-02T11:35:12;102032.81;;;9.28;100.00
29935;BME280;19905;53.370;-6.314;2023-02-02T11:37:56;102027.22;;;9.34;100.00
29935;BME280;19905;53.370;-6.314;2023-02-02T11:40:30;102021.66;;;9.40;100.00
29935;BME280;19905;53.370;-6.314;2023-02-02T11:43:01;102015.31;;;9.45;100.00
29935;BME280;19905;53.370;-6.314;2023-02-02T11:45:35;102020.50;;;9.46;100.00
29935;BME280;19905;53.370;-6.314;2023-02-02T11:48:13;102018.63;;;9.48;100.00
29935;BME280;19905;53.370;-6.314;2023-02-02T11:50:45;102012.03;;;9.57;100.00
29935;BME280;19905;53.370;-6.314;2023-02-02T11:53:25;102008.47;;;9.58;100.00
29935;BME280;19905;53.370;-6.314;2023-02-02T11:55:55;102001.31;;;9.60;100.00
29935;BME280;19905;53.370;-6.314;2023-02-02T11:58:26;101994.16;;;9.62;100.00
29935;BME280;19905;53.370;-6.314;2023-02-02T12:00:59;101985.09;;;9.67;100.00
29935;BME280;19905;53.370;-6.314;2023-02-02T12:03:34;102017.78;;;9.65;100.00
29935;BME280;19905;53.370;-6.314;2023-02-02T12:06:18;102002.53;;;9.70;100.00
29935;BME280;19905;53.370;-6.314;2023-02-02T12:08:49;102016.69;;;9.69;100.00
29935;BME280;19905;53.370;-6.314;2023-02-02T12:11:31;101987.56;;;9.71;100.00
29935;BME280;19905;53.370;-6.314;2023-02-02T12:14:24;101993.53;;;9.74;100.00
29935;BME280;19905;53.370;-6.314;2023-02-02T12:17:06;101977.31;;;9.82;100.00
29935;BME280;19905;53.370;-6.314;2023-02-02T12:19:53;101991.22;;;9.85;100.00
29935;BME280;19905;53.370;-6.314;2023-02-02T12:22:39;101968.47;;;9.83;100.00
29935;BME280;19905;53.370;-6.314;2023-02-02T12:25:30;101964.88;;;9.84;100.00
29935;BME280;19905;53.370;-6.314;2023-02-02T12:28:04;101969.22;;;9.85;100.00
29935;BME280;19905;53.370;-6.314;2023-02-02T12:30:41;101969.66;;;9.77;100.00
29935;BME280;19905;53.370;-6.314;2023-02-02T12:33:22;101994.88;;;9.65;100.00
29935;BME280;19905;53.370;-6.314;2023-02-02T12:36:35;101958.84;;;9.49;100.00
29935;BME280;19905;53.370;-6.314;2023-02-02T12:39:23;101951.31;;;9.41;100.00
29935;BME280;19905;53.370;-6.314;2023-02-02T12:45:12;101986.44;;;9.41;100.00
29935;BME280;19905;53.370;-6.314;2023-02-02T12:47:51;101944.09;;;9.45;100.00
29935;BME280;19905;53.370;-6.314;2023-02-02T12:50:29;101966.41;;;9.55;100.00
29935;BME280;19905;53.370;-6.314;2023-02-02T12:53:15;101937.88;;;9.63;100.00
29935;BME280;19905;53.370;-6.314;2023-02-02T12:55:54;101935.88;;;9.66;100.00
29935;BME280;19905;53.370;-6.314;2023-02-02T12:58:33;101931.06;;;9.75;100.00
29935;BME280;19905;53.370;-6.314;2023-02-02T13:01:25;101912.34;;;9.79;100.00
29935;BME280;19905;53.370;-6.314;2023-02-02T13:04:05;101926.31;;;9.81;100.00
29935;BME280;19905;53.370;-6.314;2023-02-02T13:07:05;101926.63;;;9.75;100.00
29935;BME280;19905;53.370;-6.314;2023-02-02T13:09:41;101917.63;;;9.79;100.00
29935;BME280;19905;53.370;-6.314;2023-02-02T13:12:16;101918.47;;;9.80;100.00
29935;BME280;19905;53.370;-6.314;2023-02-02T13:14:50;101912.53;;;9.76;100.00
29935;BME280;19905;53.370;-6.314;2023-02-02T13:17:26;101920.94;;;9.67;100.00
29935;BME280;19905;53.370;-6.314;2023-02-02T13:19:59;101936.06;;;9.63;100.00